<?xml version="1.0" encoding="UTF-8" standalone="no" ?>
<gpx xmlns="http://www.topografix.com/GPX/1/1" xmlns:xsi="http://www.w3.org/2001/XMLSchema-instance" xsi:schemaLocation="http://www.topografix.com/GPX/1/1 http://www.topografix.com/GPX/1/1/gpx.xsd" version="1.1" creator="VisuGPX - https://www.visugpx.com">
  <metadata>
    <name>Oudon Brevet des grimpeurs </name>
    <desc><![CDATA[Rando organisée à Oudon édition 2017
cumuler un maximum de côtes sur 23 km]]></desc>
  </metadata>
  <trk>
    <name><![CDATA[brevet des grimpeurs-1309503]]></name>
    <extensions>
      <line xmlns="http://www.topografix.com/GPX/gpx_style/0/2">
        <color>FF0000</color>
        <width>4</width>
      </line>
    </extensions>
    <trkseg>
      <trkpt lat="47.34627" lon="-1.28279">
        <ele>9</ele>
        <time>2025-02-26T10:22:09Z</time>
      </trkpt>
      <trkpt lat="47.34627" lon="-1.28335">
        <ele>10</ele>
        <time>2025-02-26T10:23:00Z</time>
      </trkpt>
      <trkpt lat="47.34634" lon="-1.28356">
        <ele>10</ele>
        <time>2025-02-26T10:23:21Z</time>
      </trkpt>
      <trkpt lat="47.34653" lon="-1.28358">
        <ele>11</ele>
        <time>2025-02-26T10:23:46Z</time>
      </trkpt>
      <trkpt lat="47.34679" lon="-1.28294">
        <ele>12</ele>
        <time>2025-02-26T10:24:54Z</time>
      </trkpt>
      <trkpt lat="47.34726" lon="-1.28105">
        <ele>12</ele>
        <time>2025-02-26T10:27:56Z</time>
      </trkpt>
      <trkpt lat="47.34723" lon="-1.28082">
        <ele>12</ele>
        <time>2025-02-26T10:28:17Z</time>
      </trkpt>
      <trkpt lat="47.34687" lon="-1.2806">
        <ele>10</ele>
        <time>2025-02-26T10:29:09Z</time>
      </trkpt>
      <trkpt lat="47.34677" lon="-1.28037">
        <ele>10</ele>
        <time>2025-02-26T10:29:34Z</time>
      </trkpt>
      <trkpt lat="47.34691" lon="-1.27972">
        <ele>10</ele>
        <time>2025-02-26T10:30:35Z</time>
      </trkpt>
      <trkpt lat="47.34709" lon="-1.2778">
        <ele>7</ele>
        <time>2025-02-26T10:33:31Z</time>
      </trkpt>
      <trkpt lat="47.34727" lon="-1.27699">
        <ele>6</ele>
        <time>2025-02-26T10:34:48Z</time>
      </trkpt>
      <trkpt lat="47.34724" lon="-1.27633">
        <ele>5</ele>
        <time>2025-02-26T10:35:47Z</time>
      </trkpt>
      <trkpt lat="47.34748" lon="-1.27446">
        <ele>6</ele>
        <time>2025-02-26T10:38:40Z</time>
      </trkpt>
      <trkpt lat="47.34753" lon="-1.27287">
        <ele>8</ele>
        <time>2025-02-26T10:41:03Z</time>
      </trkpt>
      <trkpt lat="47.34771" lon="-1.27153">
        <ele>8</ele>
        <time>2025-02-26T10:43:07Z</time>
      </trkpt>
      <trkpt lat="47.34773" lon="-1.27077">
        <ele>8</ele>
        <time>2025-02-26T10:44:16Z</time>
      </trkpt>
      <trkpt lat="47.3479" lon="-1.27">
        <ele>7</ele>
        <time>2025-02-26T10:45:29Z</time>
      </trkpt>
      <trkpt lat="47.34828" lon="-1.26771">
        <ele>6</ele>
        <time>2025-02-26T10:49:02Z</time>
      </trkpt>
      <trkpt lat="47.34838" lon="-1.26756">
        <ele>6</ele>
        <time>2025-02-26T10:49:21Z</time>
      </trkpt>
      <trkpt lat="47.34945" lon="-1.26654">
        <ele>13</ele>
        <time>2025-02-26T10:52:11Z</time>
      </trkpt>
      <trkpt lat="47.3495" lon="-1.26641">
        <ele>14</ele>
        <time>2025-02-26T10:52:25Z</time>
      </trkpt>
      <trkpt lat="47.34921" lon="-1.26301">
        <ele>11</ele>
        <time>2025-02-26T10:57:34Z</time>
      </trkpt>
      <trkpt lat="47.34908" lon="-1.26252">
        <ele>12</ele>
        <time>2025-02-26T10:58:22Z</time>
      </trkpt>
      <trkpt lat="47.34853" lon="-1.26111">
        <ele>10</ele>
        <time>2025-02-26T11:00:49Z</time>
      </trkpt>
      <trkpt lat="47.34845" lon="-1.26073">
        <ele>10</ele>
        <time>2025-02-26T11:01:25Z</time>
      </trkpt>
      <trkpt lat="47.34916" lon="-1.2607">
        <ele>17</ele>
        <time>2025-02-26T11:03:00Z</time>
      </trkpt>
      <trkpt lat="47.34965" lon="-1.26058">
        <ele>22</ele>
        <time>2025-02-26T11:04:06Z</time>
      </trkpt>
      <trkpt lat="47.35033" lon="-1.26022">
        <ele>30</ele>
        <time>2025-02-26T11:05:43Z</time>
      </trkpt>
      <trkpt lat="47.35095" lon="-1.25972">
        <ele>35</ele>
        <time>2025-02-26T11:07:17Z</time>
      </trkpt>
      <trkpt lat="47.35161" lon="-1.25951">
        <ele>46</ele>
        <time>2025-02-26T11:08:47Z</time>
      </trkpt>
      <trkpt lat="47.35187" lon="-1.25909">
        <ele>50</ele>
        <time>2025-02-26T11:09:38Z</time>
      </trkpt>
      <trkpt lat="47.35253" lon="-1.25872">
        <ele>57</ele>
        <time>2025-02-26T11:11:13Z</time>
      </trkpt>
      <trkpt lat="47.35274" lon="-1.25849">
        <ele>59</ele>
        <time>2025-02-26T11:11:48Z</time>
      </trkpt>
      <trkpt lat="47.35282" lon="-1.25803">
        <ele>60</ele>
        <time>2025-02-26T11:12:30Z</time>
      </trkpt>
      <trkpt lat="47.3527" lon="-1.25684">
        <ele>61</ele>
        <time>2025-02-26T11:14:19Z</time>
      </trkpt>
      <trkpt lat="47.35237" lon="-1.25607">
        <ele>61</ele>
        <time>2025-02-26T11:15:42Z</time>
      </trkpt>
      <trkpt lat="47.35197" lon="-1.25474">
        <ele>66</ele>
        <time>2025-02-26T11:17:53Z</time>
      </trkpt>
      <trkpt lat="47.35196" lon="-1.25414">
        <ele>68</ele>
        <time>2025-02-26T11:18:47Z</time>
      </trkpt>
      <trkpt lat="47.35169" lon="-1.25407">
        <ele>68</ele>
        <time>2025-02-26T11:19:24Z</time>
      </trkpt>
      <trkpt lat="47.3513" lon="-1.25416">
        <ele>67</ele>
        <time>2025-02-26T11:20:17Z</time>
      </trkpt>
      <trkpt lat="47.35089" lon="-1.2544">
        <ele>65</ele>
        <time>2025-02-26T11:21:16Z</time>
      </trkpt>
      <trkpt lat="47.35042" lon="-1.2548">
        <ele>59</ele>
        <time>2025-02-26T11:22:28Z</time>
      </trkpt>
      <trkpt lat="47.35009" lon="-1.25495">
        <ele>55</ele>
        <time>2025-02-26T11:23:14Z</time>
      </trkpt>
      <trkpt lat="47.3496" lon="-1.25466">
        <ele>49</ele>
        <time>2025-02-26T11:24:24Z</time>
      </trkpt>
      <trkpt lat="47.34931" lon="-1.25471">
        <ele>45</ele>
        <time>2025-02-26T11:25:03Z</time>
      </trkpt>
      <trkpt lat="47.34912" lon="-1.25454">
        <ele>42</ele>
        <time>2025-02-26T11:25:33Z</time>
      </trkpt>
      <trkpt lat="47.34894" lon="-1.25453">
        <ele>36</ele>
        <time>2025-02-26T11:25:57Z</time>
      </trkpt>
      <trkpt lat="47.34881" lon="-1.25435">
        <ele>33</ele>
        <time>2025-02-26T11:26:21Z</time>
      </trkpt>
      <trkpt lat="47.34866" lon="-1.25435">
        <ele>28</ele>
        <time>2025-02-26T11:26:41Z</time>
      </trkpt>
      <trkpt lat="47.34858" lon="-1.25428">
        <ele>26</ele>
        <time>2025-02-26T11:26:53Z</time>
      </trkpt>
      <trkpt lat="47.34855" lon="-1.25409">
        <ele>25</ele>
        <time>2025-02-26T11:27:11Z</time>
      </trkpt>
      <trkpt lat="47.3482" lon="-1.25398">
        <ele>18</ele>
        <time>2025-02-26T11:27:59Z</time>
      </trkpt>
      <trkpt lat="47.34807" lon="-1.25387">
        <ele>16</ele>
        <time>2025-02-26T11:28:19Z</time>
      </trkpt>
      <trkpt lat="47.34787" lon="-1.25242">
        <ele>17</ele>
        <time>2025-02-26T11:30:33Z</time>
      </trkpt>
      <trkpt lat="47.348" lon="-1.25209">
        <ele>21</ele>
        <time>2025-02-26T11:31:07Z</time>
      </trkpt>
      <trkpt lat="47.34858" lon="-1.25175">
        <ele>36</ele>
        <time>2025-02-26T11:32:30Z</time>
      </trkpt>
      <trkpt lat="47.3487" lon="-1.25175">
        <ele>39</ele>
        <time>2025-02-26T11:32:46Z</time>
      </trkpt>
      <trkpt lat="47.34902" lon="-1.25156">
        <ele>48</ele>
        <time>2025-02-26T11:33:32Z</time>
      </trkpt>
      <trkpt lat="47.35047" lon="-1.25123">
        <ele>66</ele>
        <time>2025-02-26T11:36:48Z</time>
      </trkpt>
      <trkpt lat="47.35136" lon="-1.25118">
        <ele>69</ele>
        <time>2025-02-26T11:38:47Z</time>
      </trkpt>
      <trkpt lat="47.35141" lon="-1.25108">
        <ele>69</ele>
        <time>2025-02-26T11:38:58Z</time>
      </trkpt>
      <trkpt lat="47.35134" lon="-1.25002">
        <ele>68</ele>
        <time>2025-02-26T11:40:35Z</time>
      </trkpt>
      <trkpt lat="47.35109" lon="-1.24819">
        <ele>67</ele>
        <time>2025-02-26T11:43:23Z</time>
      </trkpt>
      <trkpt lat="47.35085" lon="-1.24706">
        <ele>66</ele>
        <time>2025-02-26T11:45:10Z</time>
      </trkpt>
      <trkpt lat="47.35085" lon="-1.24685">
        <ele>66</ele>
        <time>2025-02-26T11:45:29Z</time>
      </trkpt>
      <trkpt lat="47.35094" lon="-1.24653">
        <ele>65</ele>
        <time>2025-02-26T11:46:01Z</time>
      </trkpt>
      <trkpt lat="47.35117" lon="-1.24614">
        <ele>63</ele>
        <time>2025-02-26T11:46:47Z</time>
      </trkpt>
      <trkpt lat="47.3514" lon="-1.2456">
        <ele>62</ele>
        <time>2025-02-26T11:47:45Z</time>
      </trkpt>
      <trkpt lat="47.35139" lon="-1.2454">
        <ele>61</ele>
        <time>2025-02-26T11:48:03Z</time>
      </trkpt>
      <trkpt lat="47.35125" lon="-1.24496">
        <ele>57</ele>
        <time>2025-02-26T11:48:47Z</time>
      </trkpt>
      <trkpt lat="47.35131" lon="-1.24454">
        <ele>54</ele>
        <time>2025-02-26T11:49:26Z</time>
      </trkpt>
      <trkpt lat="47.35192" lon="-1.2429">
        <ele>47</ele>
        <time>2025-02-26T11:52:15Z</time>
      </trkpt>
      <trkpt lat="47.35203" lon="-1.2421">
        <ele>44</ele>
        <time>2025-02-26T11:53:29Z</time>
      </trkpt>
      <trkpt lat="47.35226" lon="-1.24153">
        <ele>44</ele>
        <time>2025-02-26T11:54:29Z</time>
      </trkpt>
      <trkpt lat="47.35227" lon="-1.24107">
        <ele>42</ele>
        <time>2025-02-26T11:55:11Z</time>
      </trkpt>
      <trkpt lat="47.35219" lon="-1.24063">
        <ele>37</ele>
        <time>2025-02-26T11:55:52Z</time>
      </trkpt>
      <trkpt lat="47.35219" lon="-1.24025">
        <ele>33</ele>
        <time>2025-02-26T11:56:26Z</time>
      </trkpt>
      <trkpt lat="47.35268" lon="-1.23954">
        <ele>26</ele>
        <time>2025-02-26T11:57:58Z</time>
      </trkpt>
      <trkpt lat="47.35256" lon="-1.2391">
        <ele>20</ele>
        <time>2025-02-26T11:58:41Z</time>
      </trkpt>
      <trkpt lat="47.35226" lon="-1.23862">
        <ele>16</ele>
        <time>2025-02-26T11:59:40Z</time>
      </trkpt>
      <trkpt lat="47.35175" lon="-1.23815">
        <ele>10</ele>
        <time>2025-02-26T12:01:00Z</time>
      </trkpt>
      <trkpt lat="47.35167" lon="-1.23816">
        <ele>9</ele>
        <time>2025-02-26T12:01:11Z</time>
      </trkpt>
      <trkpt lat="47.35159" lon="-1.23896">
        <ele>11</ele>
        <time>2025-02-26T12:02:24Z</time>
      </trkpt>
      <trkpt lat="47.35129" lon="-1.23989">
        <ele>16</ele>
        <time>2025-02-26T12:03:57Z</time>
      </trkpt>
      <trkpt lat="47.35123" lon="-1.2404">
        <ele>19</ele>
        <time>2025-02-26T12:04:44Z</time>
      </trkpt>
      <trkpt lat="47.35101" lon="-1.24126">
        <ele>18</ele>
        <time>2025-02-26T12:06:07Z</time>
      </trkpt>
      <trkpt lat="47.35044" lon="-1.24296">
        <ele>15</ele>
        <time>2025-02-26T12:08:58Z</time>
      </trkpt>
      <trkpt lat="47.35005" lon="-1.24448">
        <ele>17</ele>
        <time>2025-02-26T12:11:25Z</time>
      </trkpt>
      <trkpt lat="47.34973" lon="-1.24536">
        <ele>21</ele>
        <time>2025-02-26T12:12:55Z</time>
      </trkpt>
      <trkpt lat="47.3494" lon="-1.24598">
        <ele>20</ele>
        <time>2025-02-26T12:14:07Z</time>
      </trkpt>
      <trkpt lat="47.34927" lon="-1.24638">
        <ele>22</ele>
        <time>2025-02-26T12:14:47Z</time>
      </trkpt>
      <trkpt lat="47.34861" lon="-1.24771">
        <ele>20</ele>
        <time>2025-02-26T12:17:16Z</time>
      </trkpt>
      <trkpt lat="47.34804" lon="-1.24943">
        <ele>24</ele>
        <time>2025-02-26T12:20:09Z</time>
      </trkpt>
      <trkpt lat="47.34794" lon="-1.25003">
        <ele>23</ele>
        <time>2025-02-26T12:21:05Z</time>
      </trkpt>
      <trkpt lat="47.34777" lon="-1.25036">
        <ele>18</ele>
        <time>2025-02-26T12:21:42Z</time>
      </trkpt>
      <trkpt lat="47.34748" lon="-1.25126">
        <ele>11</ele>
        <time>2025-02-26T12:23:12Z</time>
      </trkpt>
      <trkpt lat="47.3474" lon="-1.25214">
        <ele>10</ele>
        <time>2025-02-26T12:24:33Z</time>
      </trkpt>
      <trkpt lat="47.34728" lon="-1.25246">
        <ele>9</ele>
        <time>2025-02-26T12:25:06Z</time>
      </trkpt>
      <trkpt lat="47.34718" lon="-1.25293">
        <ele>8</ele>
        <time>2025-02-26T12:25:50Z</time>
      </trkpt>
      <trkpt lat="47.34718" lon="-1.25339">
        <ele>8</ele>
        <time>2025-02-26T12:26:32Z</time>
      </trkpt>
      <trkpt lat="47.3473" lon="-1.25335">
        <ele>9</ele>
        <time>2025-02-26T12:26:48Z</time>
      </trkpt>
      <trkpt lat="47.34749" lon="-1.25353">
        <ele>9</ele>
        <time>2025-02-26T12:27:18Z</time>
      </trkpt>
      <trkpt lat="47.34772" lon="-1.25356">
        <ele>12</ele>
        <time>2025-02-26T12:27:49Z</time>
      </trkpt>
      <trkpt lat="47.34797" lon="-1.25372">
        <ele>15</ele>
        <time>2025-02-26T12:28:26Z</time>
      </trkpt>
      <trkpt lat="47.3481" lon="-1.25397">
        <ele>16</ele>
        <time>2025-02-26T12:28:54Z</time>
      </trkpt>
      <trkpt lat="47.34842" lon="-1.25399">
        <ele>22</ele>
        <time>2025-02-26T12:29:37Z</time>
      </trkpt>
      <trkpt lat="47.34862" lon="-1.25434">
        <ele>27</ele>
        <time>2025-02-26T12:30:18Z</time>
      </trkpt>
      <trkpt lat="47.34885" lon="-1.25437">
        <ele>34</ele>
        <time>2025-02-26T12:30:49Z</time>
      </trkpt>
      <trkpt lat="47.3489" lon="-1.25451">
        <ele>35</ele>
        <time>2025-02-26T12:31:03Z</time>
      </trkpt>
      <trkpt lat="47.34909" lon="-1.2545">
        <ele>41</ele>
        <time>2025-02-26T12:31:29Z</time>
      </trkpt>
      <trkpt lat="47.34921" lon="-1.25474">
        <ele>44</ele>
        <time>2025-02-26T12:31:56Z</time>
      </trkpt>
      <trkpt lat="47.34946" lon="-1.25463">
        <ele>47</ele>
        <time>2025-02-26T12:32:31Z</time>
      </trkpt>
      <trkpt lat="47.34964" lon="-1.25473">
        <ele>50</ele>
        <time>2025-02-26T12:32:56Z</time>
      </trkpt>
      <trkpt lat="47.34974" lon="-1.25489">
        <ele>51</ele>
        <time>2025-02-26T12:33:16Z</time>
      </trkpt>
      <trkpt lat="47.34995" lon="-1.25503">
        <ele>53</ele>
        <time>2025-02-26T12:33:47Z</time>
      </trkpt>
      <trkpt lat="47.3503" lon="-1.2549">
        <ele>58</ele>
        <time>2025-02-26T12:34:35Z</time>
      </trkpt>
      <trkpt lat="47.35076" lon="-1.25448">
        <ele>64</ele>
        <time>2025-02-26T12:35:47Z</time>
      </trkpt>
      <trkpt lat="47.35172" lon="-1.25405">
        <ele>68</ele>
        <time>2025-02-26T12:38:01Z</time>
      </trkpt>
      <trkpt lat="47.35187" lon="-1.25407">
        <ele>68</ele>
        <time>2025-02-26T12:38:21Z</time>
      </trkpt>
      <trkpt lat="47.35202" lon="-1.25499">
        <ele>65</ele>
        <time>2025-02-26T12:39:47Z</time>
      </trkpt>
      <trkpt lat="47.3522" lon="-1.25567">
        <ele>62</ele>
        <time>2025-02-26T12:40:53Z</time>
      </trkpt>
      <trkpt lat="47.3527" lon="-1.25684">
        <ele>61</ele>
        <time>2025-02-26T12:42:58Z</time>
      </trkpt>
      <trkpt lat="47.35284" lon="-1.2577">
        <ele>61</ele>
        <time>2025-02-26T12:44:18Z</time>
      </trkpt>
      <trkpt lat="47.35271" lon="-1.25887">
        <ele>58</ele>
        <time>2025-02-26T12:46:05Z</time>
      </trkpt>
      <trkpt lat="47.35266" lon="-1.26007">
        <ele>58</ele>
        <time>2025-02-26T12:47:53Z</time>
      </trkpt>
      <trkpt lat="47.35256" lon="-1.26078">
        <ele>57</ele>
        <time>2025-02-26T12:48:59Z</time>
      </trkpt>
      <trkpt lat="47.35245" lon="-1.26239">
        <ele>56</ele>
        <time>2025-02-26T12:51:25Z</time>
      </trkpt>
      <trkpt lat="47.35237" lon="-1.26253">
        <ele>55</ele>
        <time>2025-02-26T12:51:42Z</time>
      </trkpt>
      <trkpt lat="47.35254" lon="-1.26536">
        <ele>52</ele>
        <time>2025-02-26T12:55:59Z</time>
      </trkpt>
      <trkpt lat="47.35266" lon="-1.26636">
        <ele>50</ele>
        <time>2025-02-26T12:57:31Z</time>
      </trkpt>
      <trkpt lat="47.35281" lon="-1.26969">
        <ele>43</ele>
        <time>2025-02-26T13:02:32Z</time>
      </trkpt>
      <trkpt lat="47.35274" lon="-1.27024">
        <ele>42</ele>
        <time>2025-02-26T13:03:23Z</time>
      </trkpt>
      <trkpt lat="47.35242" lon="-1.27095">
        <ele>40</ele>
        <time>2025-02-26T13:04:40Z</time>
      </trkpt>
      <trkpt lat="47.35239" lon="-1.27114">
        <ele>40</ele>
        <time>2025-02-26T13:04:58Z</time>
      </trkpt>
      <trkpt lat="47.35124" lon="-1.27361">
        <ele>32</ele>
        <time>2025-02-26T13:09:29Z</time>
      </trkpt>
      <trkpt lat="47.34941" lon="-1.27353">
        <ele>19</ele>
        <time>2025-02-26T13:13:33Z</time>
      </trkpt>
      <trkpt lat="47.34909" lon="-1.27393">
        <ele>17</ele>
        <time>2025-02-26T13:14:29Z</time>
      </trkpt>
      <trkpt lat="47.34909" lon="-1.27405">
        <ele>17</ele>
        <time>2025-02-26T13:14:40Z</time>
      </trkpt>
      <trkpt lat="47.349" lon="-1.27414">
        <ele>16</ele>
        <time>2025-02-26T13:14:54Z</time>
      </trkpt>
      <trkpt lat="47.34869" lon="-1.27405">
        <ele>13</ele>
        <time>2025-02-26T13:15:36Z</time>
      </trkpt>
      <trkpt lat="47.34862" lon="-1.27409">
        <ele>13</ele>
        <time>2025-02-26T13:15:46Z</time>
      </trkpt>
      <trkpt lat="47.34847" lon="-1.2749">
        <ele>11</ele>
        <time>2025-02-26T13:17:02Z</time>
      </trkpt>
      <trkpt lat="47.34843" lon="-1.27548">
        <ele>10</ele>
        <time>2025-02-26T13:17:55Z</time>
      </trkpt>
      <trkpt lat="47.34831" lon="-1.27577">
        <ele>9</ele>
        <time>2025-02-26T13:18:26Z</time>
      </trkpt>
      <trkpt lat="47.34822" lon="-1.2767">
        <ele>10</ele>
        <time>2025-02-26T13:19:51Z</time>
      </trkpt>
      <trkpt lat="47.34806" lon="-1.27737">
        <ele>10</ele>
        <time>2025-02-26T13:20:55Z</time>
      </trkpt>
      <trkpt lat="47.34805" lon="-1.278">
        <ele>11</ele>
        <time>2025-02-26T13:21:52Z</time>
      </trkpt>
      <trkpt lat="47.34792" lon="-1.27824">
        <ele>11</ele>
        <time>2025-02-26T13:22:20Z</time>
      </trkpt>
      <trkpt lat="47.34778" lon="-1.2789">
        <ele>12</ele>
        <time>2025-02-26T13:23:22Z</time>
      </trkpt>
      <trkpt lat="47.34768" lon="-1.27912">
        <ele>12</ele>
        <time>2025-02-26T13:23:46Z</time>
      </trkpt>
      <trkpt lat="47.34735" lon="-1.28051">
        <ele>12</ele>
        <time>2025-02-26T13:25:59Z</time>
      </trkpt>
      <trkpt lat="47.34754" lon="-1.2807">
        <ele>13</ele>
        <time>2025-02-26T13:26:30Z</time>
      </trkpt>
      <trkpt lat="47.34793" lon="-1.2809">
        <ele>20</ele>
        <time>2025-02-26T13:27:25Z</time>
      </trkpt>
      <trkpt lat="47.34838" lon="-1.28125">
        <ele>28</ele>
        <time>2025-02-26T13:28:33Z</time>
      </trkpt>
      <trkpt lat="47.34765" lon="-1.28304">
        <ele>23</ele>
        <time>2025-02-26T13:31:42Z</time>
      </trkpt>
      <trkpt lat="47.34751" lon="-1.28374">
        <ele>22</ele>
        <time>2025-02-26T13:32:48Z</time>
      </trkpt>
      <trkpt lat="47.34804" lon="-1.28437">
        <ele>32</ele>
        <time>2025-02-26T13:34:19Z</time>
      </trkpt>
      <trkpt lat="47.3481" lon="-1.2846">
        <ele>33</ele>
        <time>2025-02-26T13:34:41Z</time>
      </trkpt>
      <trkpt lat="47.34839" lon="-1.28517">
        <ele>38</ele>
        <time>2025-02-26T13:35:45Z</time>
      </trkpt>
      <trkpt lat="47.34825" lon="-1.28639">
        <ele>32</ele>
        <time>2025-02-26T13:37:37Z</time>
      </trkpt>
      <trkpt lat="47.34806" lon="-1.28732">
        <ele>25</ele>
        <time>2025-02-26T13:39:05Z</time>
      </trkpt>
      <trkpt lat="47.34787" lon="-1.28753">
        <ele>22</ele>
        <time>2025-02-26T13:39:37Z</time>
      </trkpt>
      <trkpt lat="47.34761" lon="-1.28746">
        <ele>19</ele>
        <time>2025-02-26T13:40:12Z</time>
      </trkpt>
      <trkpt lat="47.34717" lon="-1.28697">
        <ele>17</ele>
        <time>2025-02-26T13:41:26Z</time>
      </trkpt>
      <trkpt lat="47.34701" lon="-1.28694">
        <ele>16</ele>
        <time>2025-02-26T13:41:47Z</time>
      </trkpt>
      <trkpt lat="47.34673" lon="-1.28757">
        <ele>12</ele>
        <time>2025-02-26T13:42:55Z</time>
      </trkpt>
      <trkpt lat="47.34661" lon="-1.28766">
        <ele>11</ele>
        <time>2025-02-26T13:43:13Z</time>
      </trkpt>
      <trkpt lat="47.34665" lon="-1.28778">
        <ele>11</ele>
        <time>2025-02-26T13:43:25Z</time>
      </trkpt>
      <trkpt lat="47.34653" lon="-1.28768">
        <ele>11</ele>
        <time>2025-02-26T13:43:44Z</time>
      </trkpt>
      <trkpt lat="47.34628" lon="-1.2879">
        <ele>10</ele>
        <time>2025-02-26T13:44:22Z</time>
      </trkpt>
      <trkpt lat="47.34575" lon="-1.28877">
        <ele>13</ele>
        <time>2025-02-26T13:46:08Z</time>
      </trkpt>
      <trkpt lat="47.34616" lon="-1.28966">
        <ele>20</ele>
        <time>2025-02-26T13:47:46Z</time>
      </trkpt>
      <trkpt lat="47.34655" lon="-1.29106">
        <ele>34</ele>
        <time>2025-02-26T13:50:02Z</time>
      </trkpt>
      <trkpt lat="47.34665" lon="-1.29165">
        <ele>40</ele>
        <time>2025-02-26T13:50:57Z</time>
      </trkpt>
      <trkpt lat="47.34679" lon="-1.29213">
        <ele>44</ele>
        <time>2025-02-26T13:51:45Z</time>
      </trkpt>
      <trkpt lat="47.34733" lon="-1.29273">
        <ele>55</ele>
        <time>2025-02-26T13:53:15Z</time>
      </trkpt>
      <trkpt lat="47.34729" lon="-1.2928">
        <ele>55</ele>
        <time>2025-02-26T13:53:23Z</time>
      </trkpt>
      <trkpt lat="47.34719" lon="-1.29279">
        <ele>53</ele>
        <time>2025-02-26T13:53:37Z</time>
      </trkpt>
      <trkpt lat="47.34636" lon="-1.292">
        <ele>36</ele>
        <time>2025-02-26T13:55:48Z</time>
      </trkpt>
      <trkpt lat="47.34591" lon="-1.29135">
        <ele>27</ele>
        <time>2025-02-26T13:57:12Z</time>
      </trkpt>
      <trkpt lat="47.34565" lon="-1.29137">
        <ele>24</ele>
        <time>2025-02-26T13:57:47Z</time>
      </trkpt>
      <trkpt lat="47.34531" lon="-1.29103">
        <ele>21</ele>
        <time>2025-02-26T13:58:42Z</time>
      </trkpt>
      <trkpt lat="47.34513" lon="-1.29073">
        <ele>20</ele>
        <time>2025-02-26T13:59:18Z</time>
      </trkpt>
      <trkpt lat="47.34482" lon="-1.29041">
        <ele>16</ele>
        <time>2025-02-26T14:00:09Z</time>
      </trkpt>
      <trkpt lat="47.34472" lon="-1.29046">
        <ele>15</ele>
        <time>2025-02-26T14:00:23Z</time>
      </trkpt>
      <trkpt lat="47.3445" lon="-1.29032">
        <ele>12</ele>
        <time>2025-02-26T14:00:55Z</time>
      </trkpt>
      <trkpt lat="47.34442" lon="-1.29041">
        <ele>11</ele>
        <time>2025-02-26T14:01:08Z</time>
      </trkpt>
      <trkpt lat="47.3443" lon="-1.29083">
        <ele>11</ele>
        <time>2025-02-26T14:01:49Z</time>
      </trkpt>
      <trkpt lat="47.34397" lon="-1.29104">
        <ele>9</ele>
        <time>2025-02-26T14:02:37Z</time>
      </trkpt>
      <trkpt lat="47.34372" lon="-1.29112">
        <ele>9</ele>
        <time>2025-02-26T14:03:11Z</time>
      </trkpt>
      <trkpt lat="47.34357" lon="-1.29158">
        <ele>9</ele>
        <time>2025-02-26T14:03:58Z</time>
      </trkpt>
      <trkpt lat="47.34349" lon="-1.29213">
        <ele>8</ele>
        <time>2025-02-26T14:04:48Z</time>
      </trkpt>
      <trkpt lat="47.34343" lon="-1.29224">
        <ele>8</ele>
        <time>2025-02-26T14:05:01Z</time>
      </trkpt>
      <trkpt lat="47.34317" lon="-1.29237">
        <ele>8</ele>
        <time>2025-02-26T14:05:38Z</time>
      </trkpt>
      <trkpt lat="47.34296" lon="-1.29224">
        <ele>7</ele>
        <time>2025-02-26T14:06:08Z</time>
      </trkpt>
      <trkpt lat="47.34297" lon="-1.29295">
        <ele>6</ele>
        <time>2025-02-26T14:07:12Z</time>
      </trkpt>
      <trkpt lat="47.34275" lon="-1.29508">
        <ele>6</ele>
        <time>2025-02-26T14:10:27Z</time>
      </trkpt>
      <trkpt lat="47.342" lon="-1.29686">
        <ele>6</ele>
        <time>2025-02-26T14:13:37Z</time>
      </trkpt>
      <trkpt lat="47.34185" lon="-1.29704">
        <ele>5</ele>
        <time>2025-02-26T14:14:03Z</time>
      </trkpt>
      <trkpt lat="47.34181" lon="-1.29795">
        <ele>5</ele>
        <time>2025-02-26T14:15:25Z</time>
      </trkpt>
      <trkpt lat="47.34174" lon="-1.29837">
        <ele>5</ele>
        <time>2025-02-26T14:16:04Z</time>
      </trkpt>
      <trkpt lat="47.34175" lon="-1.29885">
        <ele>5</ele>
        <time>2025-02-26T14:16:48Z</time>
      </trkpt>
      <trkpt lat="47.34147" lon="-1.3007">
        <ele>5</ele>
        <time>2025-02-26T14:19:39Z</time>
      </trkpt>
      <trkpt lat="47.34146" lon="-1.30127">
        <ele>5</ele>
        <time>2025-02-26T14:20:31Z</time>
      </trkpt>
      <trkpt lat="47.34097" lon="-1.30314">
        <ele>7</ele>
        <time>2025-02-26T14:23:32Z</time>
      </trkpt>
      <trkpt lat="47.3408" lon="-1.30329">
        <ele>6</ele>
        <time>2025-02-26T14:23:58Z</time>
      </trkpt>
      <trkpt lat="47.34065" lon="-1.30359">
        <ele>6</ele>
        <time>2025-02-26T14:24:32Z</time>
      </trkpt>
      <trkpt lat="47.34032" lon="-1.30395">
        <ele>7</ele>
        <time>2025-02-26T14:25:27Z</time>
      </trkpt>
      <trkpt lat="47.34015" lon="-1.30443">
        <ele>7</ele>
        <time>2025-02-26T14:26:16Z</time>
      </trkpt>
      <trkpt lat="47.34011" lon="-1.30528">
        <ele>8</ele>
        <time>2025-02-26T14:27:33Z</time>
      </trkpt>
      <trkpt lat="47.33997" lon="-1.30589">
        <ele>8</ele>
        <time>2025-02-26T14:28:31Z</time>
      </trkpt>
      <trkpt lat="47.33976" lon="-1.30638">
        <ele>10</ele>
        <time>2025-02-26T14:29:23Z</time>
      </trkpt>
      <trkpt lat="47.3388" lon="-1.30773">
        <ele>13</ele>
        <time>2025-02-26T14:32:20Z</time>
      </trkpt>
      <trkpt lat="47.33698" lon="-1.3095">
        <ele>17</ele>
        <time>2025-02-26T14:37:11Z</time>
      </trkpt>
      <trkpt lat="47.33677" lon="-1.30988">
        <ele>18</ele>
        <time>2025-02-26T14:37:56Z</time>
      </trkpt>
      <trkpt lat="47.33643" lon="-1.31022">
        <ele>16</ele>
        <time>2025-02-26T14:38:50Z</time>
      </trkpt>
      <trkpt lat="47.3361" lon="-1.31073">
        <ele>15</ele>
        <time>2025-02-26T14:39:54Z</time>
      </trkpt>
      <trkpt lat="47.33576" lon="-1.31146">
        <ele>13</ele>
        <time>2025-02-26T14:41:14Z</time>
      </trkpt>
      <trkpt lat="47.33577" lon="-1.31156">
        <ele>13</ele>
        <time>2025-02-26T14:41:24Z</time>
      </trkpt>
      <trkpt lat="47.33584" lon="-1.31159">
        <ele>15</ele>
        <time>2025-02-26T14:41:33Z</time>
      </trkpt>
      <trkpt lat="47.33597" lon="-1.31193">
        <ele>23</ele>
        <time>2025-02-26T14:42:09Z</time>
      </trkpt>
      <trkpt lat="47.33621" lon="-1.31203">
        <ele>32</ele>
        <time>2025-02-26T14:42:42Z</time>
      </trkpt>
      <trkpt lat="47.33645" lon="-1.31234">
        <ele>42</ele>
        <time>2025-02-26T14:43:24Z</time>
      </trkpt>
      <trkpt lat="47.33653" lon="-1.31226">
        <ele>44</ele>
        <time>2025-02-26T14:43:37Z</time>
      </trkpt>
      <trkpt lat="47.33705" lon="-1.31253">
        <ele>57</ele>
        <time>2025-02-26T14:44:51Z</time>
      </trkpt>
      <trkpt lat="47.33725" lon="-1.31271">
        <ele>61</ele>
        <time>2025-02-26T14:45:22Z</time>
      </trkpt>
      <trkpt lat="47.33762" lon="-1.31284">
        <ele>65</ele>
        <time>2025-02-26T14:46:13Z</time>
      </trkpt>
      <trkpt lat="47.33832" lon="-1.31345">
        <ele>68</ele>
        <time>2025-02-26T14:48:01Z</time>
      </trkpt>
      <trkpt lat="47.3391" lon="-1.31261">
        <ele>65</ele>
        <time>2025-02-26T14:50:10Z</time>
      </trkpt>
      <trkpt lat="47.33961" lon="-1.31165">
        <ele>65</ele>
        <time>2025-02-26T14:52:01Z</time>
      </trkpt>
      <trkpt lat="47.33966" lon="-1.31141">
        <ele>65</ele>
        <time>2025-02-26T14:52:23Z</time>
      </trkpt>
      <trkpt lat="47.33963" lon="-1.31115">
        <ele>64</ele>
        <time>2025-02-26T14:52:47Z</time>
      </trkpt>
      <trkpt lat="47.33969" lon="-1.31038">
        <ele>62</ele>
        <time>2025-02-26T14:53:57Z</time>
      </trkpt>
      <trkpt lat="47.33966" lon="-1.31023">
        <ele>61</ele>
        <time>2025-02-26T14:54:11Z</time>
      </trkpt>
      <trkpt lat="47.33905" lon="-1.31">
        <ele>58</ele>
        <time>2025-02-26T14:55:35Z</time>
      </trkpt>
      <trkpt lat="47.33889" lon="-1.30941">
        <ele>49</ele>
        <time>2025-02-26T14:56:33Z</time>
      </trkpt>
      <trkpt lat="47.33893" lon="-1.30911">
        <ele>45</ele>
        <time>2025-02-26T14:57:00Z</time>
      </trkpt>
      <trkpt lat="47.33904" lon="-1.30889">
        <ele>41</ele>
        <time>2025-02-26T14:57:25Z</time>
      </trkpt>
      <trkpt lat="47.33987" lon="-1.3084">
        <ele>39</ele>
        <time>2025-02-26T14:59:24Z</time>
      </trkpt>
      <trkpt lat="47.33999" lon="-1.30812">
        <ele>36</ele>
        <time>2025-02-26T14:59:54Z</time>
      </trkpt>
      <trkpt lat="47.33996" lon="-1.308">
        <ele>33</ele>
        <time>2025-02-26T15:00:06Z</time>
      </trkpt>
      <trkpt lat="47.33978" lon="-1.30788">
        <ele>29</ele>
        <time>2025-02-26T15:00:32Z</time>
      </trkpt>
      <trkpt lat="47.33977" lon="-1.30777">
        <ele>27</ele>
        <time>2025-02-26T15:00:42Z</time>
      </trkpt>
      <trkpt lat="47.33987" lon="-1.30743">
        <ele>22</ele>
        <time>2025-02-26T15:01:16Z</time>
      </trkpt>
      <trkpt lat="47.33981" lon="-1.30709">
        <ele>17</ele>
        <time>2025-02-26T15:01:48Z</time>
      </trkpt>
      <trkpt lat="47.33999" lon="-1.30657">
        <ele>11</ele>
        <time>2025-02-26T15:02:40Z</time>
      </trkpt>
      <trkpt lat="47.34058" lon="-1.30578">
        <ele>13</ele>
        <time>2025-02-26T15:04:27Z</time>
      </trkpt>
      <trkpt lat="47.34124" lon="-1.30428">
        <ele>15</ele>
        <time>2025-02-26T15:07:09Z</time>
      </trkpt>
      <trkpt lat="47.34166" lon="-1.30348">
        <ele>16</ele>
        <time>2025-02-26T15:08:40Z</time>
      </trkpt>
      <trkpt lat="47.34209" lon="-1.30228">
        <ele>14</ele>
        <time>2025-02-26T15:10:43Z</time>
      </trkpt>
      <trkpt lat="47.34259" lon="-1.30061">
        <ele>11</ele>
        <time>2025-02-26T15:13:28Z</time>
      </trkpt>
      <trkpt lat="47.34266" lon="-1.3">
        <ele>10</ele>
        <time>2025-02-26T15:14:24Z</time>
      </trkpt>
      <trkpt lat="47.34276" lon="-1.29961">
        <ele>10</ele>
        <time>2025-02-26T15:15:02Z</time>
      </trkpt>
      <trkpt lat="47.34282" lon="-1.2996">
        <ele>10</ele>
        <time>2025-02-26T15:15:10Z</time>
      </trkpt>
      <trkpt lat="47.34279" lon="-1.29994">
        <ele>11</ele>
        <time>2025-02-26T15:15:41Z</time>
      </trkpt>
      <trkpt lat="47.34295" lon="-1.30059">
        <ele>12</ele>
        <time>2025-02-26T15:16:43Z</time>
      </trkpt>
      <trkpt lat="47.3432" lon="-1.30103">
        <ele>14</ele>
        <time>2025-02-26T15:17:35Z</time>
      </trkpt>
      <trkpt lat="47.34326" lon="-1.30124">
        <ele>17</ele>
        <time>2025-02-26T15:17:56Z</time>
      </trkpt>
      <trkpt lat="47.34341" lon="-1.30142">
        <ele>19</ele>
        <time>2025-02-26T15:18:21Z</time>
      </trkpt>
      <trkpt lat="47.34345" lon="-1.30167">
        <ele>21</ele>
        <time>2025-02-26T15:18:45Z</time>
      </trkpt>
      <trkpt lat="47.3434" lon="-1.3019">
        <ele>23</ele>
        <time>2025-02-26T15:19:07Z</time>
      </trkpt>
      <trkpt lat="47.34341" lon="-1.30235">
        <ele>28</ele>
        <time>2025-02-26T15:19:47Z</time>
      </trkpt>
      <trkpt lat="47.34397" lon="-1.30315">
        <ele>36</ele>
        <time>2025-02-26T15:21:31Z</time>
      </trkpt>
      <trkpt lat="47.34439" lon="-1.30364">
        <ele>40</ele>
        <time>2025-02-26T15:22:43Z</time>
      </trkpt>
      <trkpt lat="47.34455" lon="-1.30391">
        <ele>42</ele>
        <time>2025-02-26T15:23:15Z</time>
      </trkpt>
      <trkpt lat="47.34465" lon="-1.30421">
        <ele>43</ele>
        <time>2025-02-26T15:23:45Z</time>
      </trkpt>
      <trkpt lat="47.34472" lon="-1.30517">
        <ele>46</ele>
        <time>2025-02-26T15:25:13Z</time>
      </trkpt>
      <trkpt lat="47.34494" lon="-1.30492">
        <ele>46</ele>
        <time>2025-02-26T15:25:50Z</time>
      </trkpt>
      <trkpt lat="47.34513" lon="-1.30499">
        <ele>45</ele>
        <time>2025-02-26T15:26:16Z</time>
      </trkpt>
      <trkpt lat="47.34539" lon="-1.30433">
        <ele>42</ele>
        <time>2025-02-26T15:27:25Z</time>
      </trkpt>
      <trkpt lat="47.34546" lon="-1.3039">
        <ele>39</ele>
        <time>2025-02-26T15:28:05Z</time>
      </trkpt>
      <trkpt lat="47.3458" lon="-1.30286">
        <ele>29</ele>
        <time>2025-02-26T15:29:49Z</time>
      </trkpt>
      <trkpt lat="47.34585" lon="-1.30214">
        <ele>23</ele>
        <time>2025-02-26T15:30:55Z</time>
      </trkpt>
      <trkpt lat="47.34656" lon="-1.30167">
        <ele>23</ele>
        <time>2025-02-26T15:32:39Z</time>
      </trkpt>
      <trkpt lat="47.34687" lon="-1.30165">
        <ele>26</ele>
        <time>2025-02-26T15:33:20Z</time>
      </trkpt>
      <trkpt lat="47.34708" lon="-1.30177">
        <ele>29</ele>
        <time>2025-02-26T15:33:50Z</time>
      </trkpt>
      <trkpt lat="47.34757" lon="-1.30233">
        <ele>31</ele>
        <time>2025-02-26T15:35:13Z</time>
      </trkpt>
      <trkpt lat="47.34845" lon="-1.30268">
        <ele>36</ele>
        <time>2025-02-26T15:37:14Z</time>
      </trkpt>
      <trkpt lat="47.34869" lon="-1.30299">
        <ele>38</ele>
        <time>2025-02-26T15:37:57Z</time>
      </trkpt>
      <trkpt lat="47.34877" lon="-1.303">
        <ele>38</ele>
        <time>2025-02-26T15:38:08Z</time>
      </trkpt>
      <trkpt lat="47.3489" lon="-1.30279">
        <ele>39</ele>
        <time>2025-02-26T15:38:33Z</time>
      </trkpt>
      <trkpt lat="47.34924" lon="-1.3025">
        <ele>44</ele>
        <time>2025-02-26T15:39:26Z</time>
      </trkpt>
      <trkpt lat="47.34948" lon="-1.30215">
        <ele>48</ele>
        <time>2025-02-26T15:40:11Z</time>
      </trkpt>
      <trkpt lat="47.35001" lon="-1.30166">
        <ele>53</ele>
        <time>2025-02-26T15:41:34Z</time>
      </trkpt>
      <trkpt lat="47.35063" lon="-1.30086">
        <ele>58</ele>
        <time>2025-02-26T15:43:24Z</time>
      </trkpt>
      <trkpt lat="47.35155" lon="-1.29939">
        <ele>67</ele>
        <time>2025-02-26T15:46:25Z</time>
      </trkpt>
      <trkpt lat="47.35148" lon="-1.2991">
        <ele>67</ele>
        <time>2025-02-26T15:46:53Z</time>
      </trkpt>
      <trkpt lat="47.35049" lon="-1.2975">
        <ele>65</ele>
        <time>2025-02-26T15:50:09Z</time>
      </trkpt>
      <trkpt lat="47.34983" lon="-1.296">
        <ele>65</ele>
        <time>2025-02-26T15:52:50Z</time>
      </trkpt>
      <trkpt lat="47.34929" lon="-1.29512">
        <ele>64</ele>
        <time>2025-02-26T15:54:38Z</time>
      </trkpt>
      <trkpt lat="47.34905" lon="-1.29488">
        <ele>64</ele>
        <time>2025-02-26T15:55:17Z</time>
      </trkpt>
      <trkpt lat="47.34903" lon="-1.29476">
        <ele>64</ele>
        <time>2025-02-26T15:55:28Z</time>
      </trkpt>
      <trkpt lat="47.34926" lon="-1.29449">
        <ele>64</ele>
        <time>2025-02-26T15:56:07Z</time>
      </trkpt>
      <trkpt lat="47.35021" lon="-1.29368">
        <ele>60</ele>
        <time>2025-02-26T15:58:33Z</time>
      </trkpt>
      <trkpt lat="47.3507" lon="-1.29267">
        <ele>53</ele>
        <time>2025-02-26T16:00:26Z</time>
      </trkpt>
      <trkpt lat="47.35076" lon="-1.29265">
        <ele>52</ele>
        <time>2025-02-26T16:00:34Z</time>
      </trkpt>
      <trkpt lat="47.35098" lon="-1.29283">
        <ele>52</ele>
        <time>2025-02-26T16:01:07Z</time>
      </trkpt>
      <trkpt lat="47.35122" lon="-1.29276">
        <ele>49</ele>
        <time>2025-02-26T16:01:40Z</time>
      </trkpt>
      <trkpt lat="47.35158" lon="-1.29218">
        <ele>41</ele>
        <time>2025-02-26T16:02:51Z</time>
      </trkpt>
      <trkpt lat="47.35181" lon="-1.29218">
        <ele>37</ele>
        <time>2025-02-26T16:03:22Z</time>
      </trkpt>
      <trkpt lat="47.35204" lon="-1.29187">
        <ele>29</ele>
        <time>2025-02-26T16:04:03Z</time>
      </trkpt>
      <trkpt lat="47.35224" lon="-1.29204">
        <ele>26</ele>
        <time>2025-02-26T16:04:34Z</time>
      </trkpt>
      <trkpt lat="47.35256" lon="-1.29202">
        <ele>19</ele>
        <time>2025-02-26T16:05:17Z</time>
      </trkpt>
      <trkpt lat="47.3531" lon="-1.29265">
        <ele>17</ele>
        <time>2025-02-26T16:06:49Z</time>
      </trkpt>
      <trkpt lat="47.35335" lon="-1.29333">
        <ele>23</ele>
        <time>2025-02-26T16:07:59Z</time>
      </trkpt>
      <trkpt lat="47.35366" lon="-1.2938">
        <ele>20</ele>
        <time>2025-02-26T16:08:58Z</time>
      </trkpt>
      <trkpt lat="47.35374" lon="-1.29403">
        <ele>19</ele>
        <time>2025-02-26T16:09:21Z</time>
      </trkpt>
      <trkpt lat="47.3537" lon="-1.29485">
        <ele>21</ele>
        <time>2025-02-26T16:10:36Z</time>
      </trkpt>
      <trkpt lat="47.35383" lon="-1.29512">
        <ele>19</ele>
        <time>2025-02-26T16:11:06Z</time>
      </trkpt>
      <trkpt lat="47.35386" lon="-1.29565">
        <ele>23</ele>
        <time>2025-02-26T16:11:54Z</time>
      </trkpt>
      <trkpt lat="47.35404" lon="-1.29586">
        <ele>22</ele>
        <time>2025-02-26T16:12:24Z</time>
      </trkpt>
      <trkpt lat="47.35449" lon="-1.29589">
        <ele>19</ele>
        <time>2025-02-26T16:13:25Z</time>
      </trkpt>
      <trkpt lat="47.3547" lon="-1.29575">
        <ele>17</ele>
        <time>2025-02-26T16:13:55Z</time>
      </trkpt>
      <trkpt lat="47.35503" lon="-1.29533">
        <ele>13</ele>
        <time>2025-02-26T16:14:53Z</time>
      </trkpt>
      <trkpt lat="47.35564" lon="-1.29492">
        <ele>12</ele>
        <time>2025-02-26T16:16:23Z</time>
      </trkpt>
      <trkpt lat="47.3557" lon="-1.2948">
        <ele>13</ele>
        <time>2025-02-26T16:16:36Z</time>
      </trkpt>
      <trkpt lat="47.35661" lon="-1.29413">
        <ele>10</ele>
        <time>2025-02-26T16:18:52Z</time>
      </trkpt>
      <trkpt lat="47.35696" lon="-1.29396">
        <ele>12</ele>
        <time>2025-02-26T16:19:41Z</time>
      </trkpt>
      <trkpt lat="47.35715" lon="-1.29373">
        <ele>12</ele>
        <time>2025-02-26T16:20:14Z</time>
      </trkpt>
      <trkpt lat="47.35744" lon="-1.29358">
        <ele>12</ele>
        <time>2025-02-26T16:20:55Z</time>
      </trkpt>
      <trkpt lat="47.35758" lon="-1.29331">
        <ele>11</ele>
        <time>2025-02-26T16:21:26Z</time>
      </trkpt>
      <trkpt lat="47.35803" lon="-1.29403">
        <ele>26</ele>
        <time>2025-02-26T16:22:54Z</time>
      </trkpt>
      <trkpt lat="47.35809" lon="-1.29428">
        <ele>29</ele>
        <time>2025-02-26T16:23:18Z</time>
      </trkpt>
      <trkpt lat="47.35843" lon="-1.29496">
        <ele>37</ele>
        <time>2025-02-26T16:24:35Z</time>
      </trkpt>
      <trkpt lat="47.35859" lon="-1.29544">
        <ele>40</ele>
        <time>2025-02-26T16:25:23Z</time>
      </trkpt>
      <trkpt lat="47.35874" lon="-1.29547">
        <ele>41</ele>
        <time>2025-02-26T16:25:43Z</time>
      </trkpt>
      <trkpt lat="47.35917" lon="-1.29504">
        <ele>43</ele>
        <time>2025-02-26T16:26:53Z</time>
      </trkpt>
      <trkpt lat="47.35919" lon="-1.29489">
        <ele>43</ele>
        <time>2025-02-26T16:27:06Z</time>
      </trkpt>
      <trkpt lat="47.35894" lon="-1.29407">
        <ele>39</ele>
        <time>2025-02-26T16:28:28Z</time>
      </trkpt>
      <trkpt lat="47.35904" lon="-1.29389">
        <ele>38</ele>
        <time>2025-02-26T16:28:49Z</time>
      </trkpt>
      <trkpt lat="47.35949" lon="-1.29342">
        <ele>35</ele>
        <time>2025-02-26T16:30:02Z</time>
      </trkpt>
      <trkpt lat="47.3598" lon="-1.29322">
        <ele>32</ele>
        <time>2025-02-26T16:30:47Z</time>
      </trkpt>
      <trkpt lat="47.35987" lon="-1.29306">
        <ele>30</ele>
        <time>2025-02-26T16:31:05Z</time>
      </trkpt>
      <trkpt lat="47.36013" lon="-1.29296">
        <ele>29</ele>
        <time>2025-02-26T16:31:40Z</time>
      </trkpt>
      <trkpt lat="47.36022" lon="-1.29267">
        <ele>28</ele>
        <time>2025-02-26T16:32:09Z</time>
      </trkpt>
      <trkpt lat="47.36013" lon="-1.29251">
        <ele>25</ele>
        <time>2025-02-26T16:32:28Z</time>
      </trkpt>
      <trkpt lat="47.35998" lon="-1.2918">
        <ele>15</ele>
        <time>2025-02-26T16:33:35Z</time>
      </trkpt>
      <trkpt lat="47.36061" lon="-1.29118">
        <ele>22</ele>
        <time>2025-02-26T16:35:16Z</time>
      </trkpt>
      <trkpt lat="47.36081" lon="-1.29067">
        <ele>18</ele>
        <time>2025-02-26T16:36:10Z</time>
      </trkpt>
      <trkpt lat="47.36104" lon="-1.29022">
        <ele>19</ele>
        <time>2025-02-26T16:37:01Z</time>
      </trkpt>
      <trkpt lat="47.36107" lon="-1.2898">
        <ele>16</ele>
        <time>2025-02-26T16:37:39Z</time>
      </trkpt>
      <trkpt lat="47.36131" lon="-1.28901">
        <ele>17</ele>
        <time>2025-02-26T16:38:57Z</time>
      </trkpt>
      <trkpt lat="47.36195" lon="-1.28769">
        <ele>14</ele>
        <time>2025-02-26T16:41:24Z</time>
      </trkpt>
      <trkpt lat="47.36234" lon="-1.28714">
        <ele>13</ele>
        <time>2025-02-26T16:42:36Z</time>
      </trkpt>
      <trkpt lat="47.36282" lon="-1.287">
        <ele>11</ele>
        <time>2025-02-26T16:43:41Z</time>
      </trkpt>
      <trkpt lat="47.3635" lon="-1.28698">
        <ele>10</ele>
        <time>2025-02-26T16:45:12Z</time>
      </trkpt>
      <trkpt lat="47.36365" lon="-1.28688">
        <ele>8</ele>
        <time>2025-02-26T16:45:34Z</time>
      </trkpt>
      <trkpt lat="47.36367" lon="-1.28647">
        <ele>8</ele>
        <time>2025-02-26T16:46:11Z</time>
      </trkpt>
      <trkpt lat="47.36363" lon="-1.28628">
        <ele>10</ele>
        <time>2025-02-26T16:46:29Z</time>
      </trkpt>
      <trkpt lat="47.36341" lon="-1.28602">
        <ele>12</ele>
        <time>2025-02-26T16:47:07Z</time>
      </trkpt>
      <trkpt lat="47.36324" lon="-1.28597">
        <ele>12</ele>
        <time>2025-02-26T16:47:30Z</time>
      </trkpt>
      <trkpt lat="47.36273" lon="-1.28602">
        <ele>10</ele>
        <time>2025-02-26T16:48:38Z</time>
      </trkpt>
      <trkpt lat="47.36272" lon="-1.28584">
        <ele>11</ele>
        <time>2025-02-26T16:48:54Z</time>
      </trkpt>
      <trkpt lat="47.3625" lon="-1.28543">
        <ele>19</ele>
        <time>2025-02-26T16:49:41Z</time>
      </trkpt>
      <trkpt lat="47.36243" lon="-1.28546">
        <ele>20</ele>
        <time>2025-02-26T16:49:51Z</time>
      </trkpt>
      <trkpt lat="47.36257" lon="-1.28528">
        <ele>23</ele>
        <time>2025-02-26T16:50:16Z</time>
      </trkpt>
      <trkpt lat="47.36254" lon="-1.28467">
        <ele>32</ele>
        <time>2025-02-26T16:51:11Z</time>
      </trkpt>
      <trkpt lat="47.36237" lon="-1.28396">
        <ele>40</ele>
        <time>2025-02-26T16:52:19Z</time>
      </trkpt>
      <trkpt lat="47.362" lon="-1.28374">
        <ele>45</ele>
        <time>2025-02-26T16:53:13Z</time>
      </trkpt>
      <trkpt lat="47.36158" lon="-1.28334">
        <ele>49</ele>
        <time>2025-02-26T16:54:19Z</time>
      </trkpt>
      <trkpt lat="47.36112" lon="-1.28308">
        <ele>54</ele>
        <time>2025-02-26T16:55:25Z</time>
      </trkpt>
      <trkpt lat="47.36097" lon="-1.28289">
        <ele>56</ele>
        <time>2025-02-26T16:55:51Z</time>
      </trkpt>
      <trkpt lat="47.36093" lon="-1.28273">
        <ele>57</ele>
        <time>2025-02-26T16:56:07Z</time>
      </trkpt>
      <trkpt lat="47.36098" lon="-1.28196">
        <ele>59</ele>
        <time>2025-02-26T16:57:17Z</time>
      </trkpt>
      <trkpt lat="47.36096" lon="-1.28112">
        <ele>62</ele>
        <time>2025-02-26T16:58:33Z</time>
      </trkpt>
      <trkpt lat="47.36089" lon="-1.28102">
        <ele>62</ele>
        <time>2025-02-26T16:58:46Z</time>
      </trkpt>
      <trkpt lat="47.36072" lon="-1.28105">
        <ele>63</ele>
        <time>2025-02-26T16:59:09Z</time>
      </trkpt>
      <trkpt lat="47.36049" lon="-1.28122">
        <ele>63</ele>
        <time>2025-02-26T16:59:43Z</time>
      </trkpt>
      <trkpt lat="47.35953" lon="-1.28222">
        <ele>66</ele>
        <time>2025-02-26T17:02:20Z</time>
      </trkpt>
      <trkpt lat="47.35884" lon="-1.28265">
        <ele>68</ele>
        <time>2025-02-26T17:04:00Z</time>
      </trkpt>
      <trkpt lat="47.3578" lon="-1.28426">
        <ele>64</ele>
        <time>2025-02-26T17:07:21Z</time>
      </trkpt>
      <trkpt lat="47.35754" lon="-1.28476">
        <ele>63</ele>
        <time>2025-02-26T17:08:18Z</time>
      </trkpt>
      <trkpt lat="47.35721" lon="-1.28604">
        <ele>55</ele>
        <time>2025-02-26T17:10:21Z</time>
      </trkpt>
      <trkpt lat="47.35718" lon="-1.28632">
        <ele>54</ele>
        <time>2025-02-26T17:10:47Z</time>
      </trkpt>
      <trkpt lat="47.35725" lon="-1.28703">
        <ele>50</ele>
        <time>2025-02-26T17:11:52Z</time>
      </trkpt>
      <trkpt lat="47.35721" lon="-1.28715">
        <ele>50</ele>
        <time>2025-02-26T17:12:04Z</time>
      </trkpt>
      <trkpt lat="47.35542" lon="-1.28798">
        <ele>41</ele>
        <time>2025-02-26T17:16:14Z</time>
      </trkpt>
      <trkpt lat="47.35538" lon="-1.28809">
        <ele>40</ele>
        <time>2025-02-26T17:16:26Z</time>
      </trkpt>
      <trkpt lat="47.35565" lon="-1.28942">
        <ele>38</ele>
        <time>2025-02-26T17:18:31Z</time>
      </trkpt>
      <trkpt lat="47.35602" lon="-1.29076">
        <ele>34</ele>
        <time>2025-02-26T17:20:42Z</time>
      </trkpt>
      <trkpt lat="47.35648" lon="-1.29066">
        <ele>29</ele>
        <time>2025-02-26T17:21:44Z</time>
      </trkpt>
      <trkpt lat="47.35665" lon="-1.29082">
        <ele>26</ele>
        <time>2025-02-26T17:22:11Z</time>
      </trkpt>
      <trkpt lat="47.35684" lon="-1.29141">
        <ele>22</ele>
        <time>2025-02-26T17:23:10Z</time>
      </trkpt>
      <trkpt lat="47.35707" lon="-1.29178">
        <ele>17</ele>
        <time>2025-02-26T17:23:55Z</time>
      </trkpt>
      <trkpt lat="47.35739" lon="-1.29253">
        <ele>8</ele>
        <time>2025-02-26T17:25:16Z</time>
      </trkpt>
      <trkpt lat="47.35716" lon="-1.29282">
        <ele>11</ele>
        <time>2025-02-26T17:25:56Z</time>
      </trkpt>
      <trkpt lat="47.35641" lon="-1.29343">
        <ele>13</ele>
        <time>2025-02-26T17:27:50Z</time>
      </trkpt>
      <trkpt lat="47.35598" lon="-1.2941">
        <ele>12</ele>
        <time>2025-02-26T17:29:14Z</time>
      </trkpt>
      <trkpt lat="47.35533" lon="-1.29439">
        <ele>14</ele>
        <time>2025-02-26T17:30:44Z</time>
      </trkpt>
      <trkpt lat="47.3548" lon="-1.29476">
        <ele>11</ele>
        <time>2025-02-26T17:32:02Z</time>
      </trkpt>
      <trkpt lat="47.35464" lon="-1.29495">
        <ele>10</ele>
        <time>2025-02-26T17:32:30Z</time>
      </trkpt>
      <trkpt lat="47.35439" lon="-1.295">
        <ele>10</ele>
        <time>2025-02-26T17:33:04Z</time>
      </trkpt>
      <trkpt lat="47.35446" lon="-1.29483">
        <ele>11</ele>
        <time>2025-02-26T17:33:22Z</time>
      </trkpt>
      <trkpt lat="47.35459" lon="-1.29384">
        <ele>15</ele>
        <time>2025-02-26T17:34:53Z</time>
      </trkpt>
      <trkpt lat="47.35448" lon="-1.29347">
        <ele>15</ele>
        <time>2025-02-26T17:35:29Z</time>
      </trkpt>
      <trkpt lat="47.35423" lon="-1.29293">
        <ele>14</ele>
        <time>2025-02-26T17:36:28Z</time>
      </trkpt>
      <trkpt lat="47.35402" lon="-1.29176">
        <ele>16</ele>
        <time>2025-02-26T17:38:18Z</time>
      </trkpt>
      <trkpt lat="47.35361" lon="-1.29118">
        <ele>13</ele>
        <time>2025-02-26T17:39:34Z</time>
      </trkpt>
      <trkpt lat="47.35349" lon="-1.29049">
        <ele>13</ele>
        <time>2025-02-26T17:40:38Z</time>
      </trkpt>
      <trkpt lat="47.35334" lon="-1.29012">
        <ele>13</ele>
        <time>2025-02-26T17:41:17Z</time>
      </trkpt>
      <trkpt lat="47.35294" lon="-1.28947">
        <ele>13</ele>
        <time>2025-02-26T17:42:36Z</time>
      </trkpt>
      <trkpt lat="47.35252" lon="-1.28908">
        <ele>11</ele>
        <time>2025-02-26T17:43:43Z</time>
      </trkpt>
      <trkpt lat="47.35251" lon="-1.28901">
        <ele>12</ele>
        <time>2025-02-26T17:43:49Z</time>
      </trkpt>
      <trkpt lat="47.35196" lon="-1.28861">
        <ele>16</ele>
        <time>2025-02-26T17:45:11Z</time>
      </trkpt>
      <trkpt lat="47.35147" lon="-1.2885">
        <ele>16</ele>
        <time>2025-02-26T17:46:17Z</time>
      </trkpt>
      <trkpt lat="47.35149" lon="-1.28824">
        <ele>19</ele>
        <time>2025-02-26T17:46:41Z</time>
      </trkpt>
      <trkpt lat="47.35144" lon="-1.28805">
        <ele>23</ele>
        <time>2025-02-26T17:46:59Z</time>
      </trkpt>
      <trkpt lat="47.35144" lon="-1.28749">
        <ele>34</ele>
        <time>2025-02-26T17:47:50Z</time>
      </trkpt>
      <trkpt lat="47.35158" lon="-1.2869">
        <ele>40</ele>
        <time>2025-02-26T17:48:46Z</time>
      </trkpt>
      <trkpt lat="47.35147" lon="-1.28682">
        <ele>42</ele>
        <time>2025-02-26T17:49:03Z</time>
      </trkpt>
      <trkpt lat="47.35133" lon="-1.28686">
        <ele>43</ele>
        <time>2025-02-26T17:49:22Z</time>
      </trkpt>
      <trkpt lat="47.35124" lon="-1.28671">
        <ele>45</ele>
        <time>2025-02-26T17:49:40Z</time>
      </trkpt>
      <trkpt lat="47.35037" lon="-1.28683">
        <ele>47</ele>
        <time>2025-02-26T17:51:36Z</time>
      </trkpt>
      <trkpt lat="47.35029" lon="-1.28675">
        <ele>48</ele>
        <time>2025-02-26T17:51:49Z</time>
      </trkpt>
      <trkpt lat="47.35029" lon="-1.28584">
        <ele>50</ele>
        <time>2025-02-26T17:53:12Z</time>
      </trkpt>
      <trkpt lat="47.35021" lon="-1.28561">
        <ele>51</ele>
        <time>2025-02-26T17:53:35Z</time>
      </trkpt>
      <trkpt lat="47.34898" lon="-1.28541">
        <ele>45</ele>
        <time>2025-02-26T17:56:20Z</time>
      </trkpt>
      <trkpt lat="47.34853" lon="-1.28525">
        <ele>40</ele>
        <time>2025-02-26T17:57:22Z</time>
      </trkpt>
      <trkpt lat="47.34826" lon="-1.28493">
        <ele>37</ele>
        <time>2025-02-26T17:58:08Z</time>
      </trkpt>
      <trkpt lat="47.348" lon="-1.28429">
        <ele>31</ele>
        <time>2025-02-26T17:59:15Z</time>
      </trkpt>
      <trkpt lat="47.34734" lon="-1.28373">
        <ele>20</ele>
        <time>2025-02-26T18:00:57Z</time>
      </trkpt>
      <trkpt lat="47.34708" lon="-1.28432">
        <ele>18</ele>
        <time>2025-02-26T18:02:01Z</time>
      </trkpt>
      <trkpt lat="47.34662" lon="-1.28428">
        <ele>13</ele>
        <time>2025-02-26T18:03:02Z</time>
      </trkpt>
      <trkpt lat="47.34653" lon="-1.2842">
        <ele>12</ele>
        <time>2025-02-26T18:03:16Z</time>
      </trkpt>
      <trkpt lat="47.34634" lon="-1.28367">
        <ele>10</ele>
        <time>2025-02-26T18:04:10Z</time>
      </trkpt>
      <trkpt lat="47.34628" lon="-1.28325">
        <ele>10</ele>
        <time>2025-02-26T18:04:49Z</time>
      </trkpt>
      <trkpt lat="47.34634" lon="-1.28277">
        <ele>9</ele>
        <time>2025-02-26T18:05:33Z</time>
        <extensions>
          <visugpx:TrkExtension xmlns:visugpx="https://www.visugpx.com/editgpx/">
            <visugpx:node>1</visugpx:node>
            </visugpx:TrkExtension>
        </extensions>
      </trkpt>
    </trkseg>
  </trk>
</gpx>